LNI326 WIII-WAOO
Flight info
| Callsign | LNI326 |
|---|---|
| Flight time | 1h 25m |
| Altitude | 31000 |
| Route | EGUKO2B/07R EGUKO T9 BUTNU |
| Aircraft | B738/M-SDE2E3FGHIRWXY/LB1 |
Departure
| Time | 2026-04-14 02:44 |
|---|---|
| Airport | Soekarno-Hatta International Airport (WIII) |
Arrival
| Time | 2026-04-14 04:10 |
|---|---|
| Airport | Syamsudin Noor International Airport (WAOO) |
| Time | Latitude | Longitude | Altitude | Speed | Heading |
|---|---|---|---|---|---|
| 2026-04-14 02:24 | -6.13219 | 106.65752 | 37 ft | 0 kts | 279° |
| 2026-04-14 02:34 | -6.13220 | 106.65758 | 37 ft | 4 kts | 279° |
| 2026-04-14 02:34 | -6.13224 | 106.65784 | 37 ft | 3 kts | 278° |
| 2026-04-14 02:34 | -6.13225 | 106.65808 | 36 ft | 4 kts | 246° |
| 2026-04-14 02:34 | -6.13208 | 106.65822 | 37 ft | 4 kts | 191° |
| 2026-04-14 02:35 | -6.13194 | 106.65825 | 37 ft | 1 kts | 188° |
| 2026-04-14 02:35 | -6.13193 | 106.65825 | 37 ft | 0 kts | 188° |
| 2026-04-14 02:38 | -6.13198 | 106.65824 | 37 ft | 2 kts | 188° |
| 2026-04-14 02:38 | -6.13231 | 106.65819 | 35 ft | 7 kts | 188° |
| 2026-04-14 02:38 | -6.13283 | 106.65811 | 37 ft | 8 kts | 188° |
| 2026-04-14 02:38 | -6.13338 | 106.65818 | 36 ft | 8 kts | 158° |
| 2026-04-14 02:39 | -6.13402 | 106.65844 | 37 ft | 12 kts | 158° |
| 2026-04-14 02:39 | -6.13469 | 106.65819 | 36 ft | 12 kts | 243° |
| 2026-04-14 02:39 | -6.13502 | 106.65741 | 35 ft | 13 kts | 248° |
| 2026-04-14 02:39 | -6.13540 | 106.65644 | 37 ft | 17 kts | 249° |
| 2026-04-14 02:40 | -6.13583 | 106.65535 | 37 ft | 16 kts | 248° |
| 2026-04-14 02:40 | -6.13626 | 106.65431 | 37 ft | 16 kts | 248° |
| 2026-04-14 02:40 | -6.13667 | 106.65330 | 37 ft | 15 kts | 248° |
| 2026-04-14 02:40 | -6.13711 | 106.65218 | 38 ft | 19 kts | 248° |
| 2026-04-14 02:41 | -6.13761 | 106.65094 | 36 ft | 19 kts | 248° |
| 2026-04-14 02:41 | -6.13808 | 106.64975 | 38 ft | 18 kts | 249° |
| 2026-04-14 02:41 | -6.13853 | 106.64861 | 37 ft | 18 kts | 247° |
| 2026-04-14 02:41 | -6.13899 | 106.64749 | 37 ft | 17 kts | 248° |
| 2026-04-14 02:42 | -6.13942 | 106.64642 | 38 ft | 16 kts | 248° |
| 2026-04-14 02:42 | -6.13983 | 106.64538 | 38 ft | 16 kts | 249° |
| 2026-04-14 02:42 | -6.14022 | 106.64439 | 36 ft | 15 kts | 248° |
| 2026-04-14 02:42 | -6.14060 | 106.64343 | 36 ft | 14 kts | 248° |
| 2026-04-14 02:43 | -6.14127 | 106.64282 | 38 ft | 14 kts | 176° |
| 2026-04-14 02:43 | -6.14192 | 106.64338 | 39 ft | 12 kts | 116° |
| 2026-04-14 02:43 | -6.14235 | 106.64384 | 38 ft | 9 kts | 99° |
| 2026-04-14 02:43 | -6.14214 | 106.64451 | 38 ft | 21 kts | 69° |
| 2026-04-14 02:44 | -6.14064 | 106.64826 | 37 ft | 94 kts | 68° |
| 2026-04-14 02:44 | -6.13740 | 106.65636 | 35 ft | 154 kts | 68° |
| 2026-04-14 02:44 | -6.13307 | 106.66784 | 293 ft | 184 kts | 71° |
| 2026-04-14 02:44 | -6.12851 | 106.67976 | 1194 ft | 181 kts | 69° |
| 2026-04-14 02:45 | -6.12352 | 106.69209 | 1737 ft | 205 kts | 69° |
| 2026-04-14 02:45 | -6.11779 | 106.70622 | 1980 ft | 230 kts | 69° |
| 2026-04-14 02:45 | -6.11160 | 106.72141 | 2322 ft | 249 kts | 69° |
| 2026-04-14 02:45 | -6.10537 | 106.73850 | 2855 ft | 262 kts | 79° |
| 2026-04-14 02:46 | -6.10403 | 106.75676 | 3763 ft | 262 kts | 89° |
| 2026-04-14 02:46 | -6.10382 | 106.77522 | 4587 ft | 267 kts | 90° |
| 2026-04-14 02:46 | -6.10365 | 106.79386 | 5381 ft | 272 kts | 90° |
| 2026-04-14 02:46 | -6.10339 | 106.81303 | 6208 ft | 276 kts | 89° |
| 2026-04-14 02:47 | -6.10305 | 106.83245 | 6761 ft | 279 kts | 89° |
| 2026-04-14 02:47 | -6.10266 | 106.85213 | 7452 ft | 285 kts | 89° |
| 2026-04-14 02:47 | -6.10221 | 106.87218 | 8267 ft | 287 kts | 89° |
| 2026-04-14 02:47 | -6.10174 | 106.89236 | 9032 ft | 291 kts | 89° |
| 2026-04-14 02:48 | -6.10124 | 106.91285 | 9750 ft | 295 kts | 89° |
| 2026-04-14 02:48 | -6.10073 | 106.93358 | 10445 ft | 300 kts | 89° |
| 2026-04-14 02:48 | -6.10021 | 106.95473 | 11105 ft | 305 kts | 90° |
| 2026-04-14 02:48 | -6.09968 | 106.97586 | 11797 ft | 308 kts | 90° |
| 2026-04-14 02:49 | -6.09914 | 106.99751 | 12491 ft | 312 kts | 90° |
| 2026-04-14 02:49 | -6.09858 | 107.01942 | 13177 ft | 315 kts | 90° |
| 2026-04-14 02:49 | -6.09804 | 107.04158 | 13866 ft | 318 kts | 90° |
| 2026-04-14 02:49 | -6.09787 | 107.06387 | 14546 ft | 320 kts | 91° |
| 2026-04-14 02:50 | -6.09795 | 107.08631 | 15222 ft | 323 kts | 91° |
| 2026-04-14 02:50 | -6.09802 | 107.10900 | 15861 ft | 326 kts | 91° |
| 2026-04-14 02:50 | -6.09805 | 107.13189 | 16492 ft | 329 kts | 90° |
| 2026-04-14 02:50 | -6.09806 | 107.14719 | 16904 ft | 331 kts | 90° |
| 2026-04-14 02:51 | -6.09314 | 107.17856 | 17158 ft | 355 kts | 64° |
| 2026-04-14 02:51 | -6.07851 | 107.19863 | 17309 ft | 370 kts | 44° |
| 2026-04-14 02:51 | -6.05929 | 107.21662 | 17439 ft | 386 kts | 42° |
| 2026-04-14 02:51 | -6.03880 | 107.23489 | 17561 ft | 400 kts | 41° |
| 2026-04-14 02:52 | -6.02486 | 107.24727 | 17749 ft | 405 kts | 41° |
| 2026-04-14 02:52 | -5.99652 | 107.27264 | 18381 ft | 408 kts | 42° |
| 2026-04-14 02:52 | -5.98252 | 107.28532 | 18723 ft | 409 kts | 42° |
| 2026-04-14 02:52 | -5.96141 | 107.30458 | 19183 ft | 411 kts | 42° |
| 2026-04-14 02:53 | -5.93320 | 107.33046 | 19734 ft | 415 kts | 43° |
| 2026-04-14 02:53 | -5.91185 | 107.35009 | 20158 ft | 417 kts | 43° |
| 2026-04-14 02:53 | -5.89756 | 107.36321 | 20432 ft | 419 kts | 43° |
| 2026-04-14 02:53 | -5.87607 | 107.38293 | 20864 ft | 420 kts | 43° |
| 2026-04-14 02:54 | -5.85437 | 107.40283 | 21110 ft | 425 kts | 43° |
| 2026-04-14 02:54 | -5.83224 | 107.42311 | 21165 ft | 435 kts | 43° |
| 2026-04-14 02:54 | -5.80966 | 107.44379 | 21238 ft | 444 kts | 43° |
| 2026-04-14 02:54 | -5.78671 | 107.46482 | 21403 ft | 449 kts | 43° |
| 2026-04-14 02:55 | -5.76366 | 107.48593 | 21718 ft | 450 kts | 43° |
| 2026-04-14 02:55 | -5.74048 | 107.50717 | 22048 ft | 450 kts | 43° |
| 2026-04-14 02:55 | -5.71733 | 107.52839 | 22314 ft | 452 kts | 43° |
| 2026-04-14 02:55 | -5.69399 | 107.54977 | 22546 ft | 454 kts | 43° |
| 2026-04-14 02:56 | -5.67062 | 107.57119 | 22786 ft | 456 kts | 43° |
| 2026-04-14 02:56 | -5.64712 | 107.59271 | 23043 ft | 458 kts | 43° |
| 2026-04-14 02:56 | -5.62355 | 107.61429 | 23269 ft | 460 kts | 43° |
| 2026-04-14 02:56 | -5.59988 | 107.63595 | 23509 ft | 461 kts | 43° |
| 2026-04-14 02:57 | -5.57616 | 107.65766 | 23757 ft | 462 kts | 43° |
| 2026-04-14 02:57 | -5.55234 | 107.67946 | 23969 ft | 464 kts | 43° |
| 2026-04-14 02:57 | -5.52847 | 107.70130 | 24159 ft | 465 kts | 43° |
| 2026-04-14 02:57 | -5.50450 | 107.72323 | 24347 ft | 467 kts | 43° |
| 2026-04-14 02:58 | -5.48075 | 107.74497 | 24544 ft | 468 kts | 43° |
| 2026-04-14 02:58 | -5.45669 | 107.76699 | 24759 ft | 469 kts | 43° |
| 2026-04-14 02:58 | -5.43266 | 107.78929 | 24948 ft | 470 kts | 45° |
| 2026-04-14 02:58 | -5.41169 | 107.81453 | 25108 ft | 471 kts | 54° |
| 2026-04-14 02:59 | -5.39316 | 107.84116 | 25770 ft | 460 kts | 56° |
| 2026-04-14 02:59 | -5.37561 | 107.86746 | 26579 ft | 448 kts | 57° |
| 2026-04-14 02:59 | -5.35835 | 107.89335 | 27029 ft | 446 kts | 57° |
| 2026-04-14 02:59 | -5.34086 | 107.91923 | 27202 ft | 450 kts | 56° |
| 2026-04-14 03:00 | -5.32300 | 107.94524 | 27353 ft | 454 kts | 56° |
| 2026-04-14 03:00 | -5.30489 | 107.97132 | 27598 ft | 455 kts | 56° |
| 2026-04-14 03:00 | -5.28689 | 107.99705 | 27876 ft | 456 kts | 56° |
| 2026-04-14 03:00 | -5.26860 | 108.02310 | 28102 ft | 457 kts | 56° |
| 2026-04-14 03:01 | -5.25025 | 108.04922 | 28278 ft | 460 kts | 56° |
| 2026-04-14 03:01 | -5.23175 | 108.07557 | 28491 ft | 461 kts | 56° |
| 2026-04-14 03:01 | -5.21322 | 108.10193 | 28742 ft | 462 kts | 56° |
| 2026-04-14 03:01 | -5.19476 | 108.12822 | 29045 ft | 461 kts | 56° |
| 2026-04-14 03:02 | -5.17632 | 108.15449 | 29407 ft | 459 kts | 56° |
| 2026-04-14 03:02 | -5.15796 | 108.18065 | 29759 ft | 457 kts | 56° |
| 2026-04-14 03:02 | -5.13973 | 108.20665 | 30066 ft | 456 kts | 56° |
| 2026-04-14 03:02 | -5.12161 | 108.23248 | 30374 ft | 456 kts | 56° |
| 2026-04-14 03:03 | -5.10317 | 108.25875 | 30708 ft | 454 kts | 56° |
| 2026-04-14 03:03 | -5.08519 | 108.28436 | 30947 ft | 455 kts | 56° |
| 2026-04-14 03:03 | -5.06688 | 108.31042 | 30924 ft | 457 kts | 56° |
| 2026-04-14 03:04 | -5.03032 | 108.36248 | 30924 ft | 452 kts | 56° |
| 2026-04-14 03:04 | -4.99414 | 108.41397 | 30946 ft | 452 kts | 56° |
| 2026-04-14 03:05 | -4.95784 | 108.46565 | 30939 ft | 452 kts | 56° |
| 2026-04-14 03:05 | -4.92175 | 108.51700 | 30937 ft | 452 kts | 56° |
| 2026-04-14 03:06 | -4.88548 | 108.56861 | 30935 ft | 453 kts | 56° |
| 2026-04-14 03:06 | -4.84911 | 108.62034 | 30943 ft | 454 kts | 56° |
| 2026-04-14 03:07 | -4.81272 | 108.67215 | 30936 ft | 454 kts | 56° |
| 2026-04-14 03:07 | -4.77631 | 108.72395 | 30932 ft | 454 kts | 56° |
| 2026-04-14 03:08 | -4.74019 | 108.77533 | 30931 ft | 454 kts | 56° |
| 2026-04-14 03:08 | -4.70468 | 108.82749 | 30927 ft | 452 kts | 62° |
| 2026-04-14 03:09 | -4.67716 | 108.88394 | 30932 ft | 451 kts | 66° |
| 2026-04-14 03:09 | -4.65133 | 108.94131 | 30939 ft | 451 kts | 66° |
| 2026-04-14 03:10 | -4.62499 | 108.99835 | 30935 ft | 451 kts | 66° |
| 2026-04-14 03:10 | -4.59828 | 109.05492 | 30938 ft | 451 kts | 65° |
| 2026-04-14 03:11 | -4.57117 | 109.11185 | 30939 ft | 452 kts | 65° |
| 2026-04-14 03:11 | -4.54404 | 109.16877 | 30931 ft | 452 kts | 65° |
| 2026-04-14 03:12 | -4.51708 | 109.22536 | 30933 ft | 452 kts | 65° |
| 2026-04-14 03:12 | -4.48997 | 109.28227 | 30931 ft | 452 kts | 65° |
| 2026-04-14 03:13 | -4.46278 | 109.33936 | 30938 ft | 453 kts | 65° |
| 2026-04-14 03:13 | -4.43560 | 109.39642 | 30935 ft | 453 kts | 65° |
| 2026-04-14 03:14 | -4.40840 | 109.45347 | 30935 ft | 454 kts | 65° |
| 2026-04-14 03:14 | -4.38131 | 109.51033 | 30922 ft | 455 kts | 65° |
| 2026-04-14 03:15 | -4.35402 | 109.56755 | 30928 ft | 455 kts | 65° |
| 2026-04-14 03:15 | -4.32678 | 109.62469 | 30925 ft | 455 kts | 65° |
| 2026-04-14 03:16 | -4.29942 | 109.68200 | 30919 ft | 455 kts | 65° |
| 2026-04-14 03:16 | -4.27217 | 109.73910 | 30928 ft | 454 kts | 65° |
| 2026-04-14 03:17 | -4.24489 | 109.79630 | 30927 ft | 454 kts | 65° |
| 2026-04-14 03:17 | -4.20395 | 109.88209 | 30927 ft | 456 kts | 65° |
| 2026-04-14 03:18 | -4.17674 | 109.93906 | 30924 ft | 456 kts | 65° |
| 2026-04-14 03:18 | -4.14934 | 109.99643 | 30915 ft | 457 kts | 65° |
| 2026-04-14 03:19 | -4.12185 | 110.05400 | 30919 ft | 458 kts | 65° |
| 2026-04-14 03:19 | -4.09433 | 110.11158 | 30916 ft | 458 kts | 65° |
| 2026-04-14 03:20 | -4.06676 | 110.16930 | 30917 ft | 459 kts | 65° |
| 2026-04-14 03:20 | -4.03932 | 110.22667 | 30915 ft | 459 kts | 65° |
| 2026-04-14 03:21 | -4.01165 | 110.28458 | 30917 ft | 459 kts | 65° |
| 2026-04-14 03:21 | -3.98408 | 110.34225 | 30915 ft | 458 kts | 65° |
| 2026-04-14 03:22 | -3.95674 | 110.39940 | 30916 ft | 458 kts | 65° |
| 2026-04-14 03:22 | -3.92913 | 110.45709 | 30915 ft | 458 kts | 65° |
| 2026-04-14 03:23 | -3.90153 | 110.51467 | 30916 ft | 459 kts | 65° |
| 2026-04-14 03:23 | -3.87390 | 110.57240 | 30918 ft | 459 kts | 65° |
| 2026-04-14 03:24 | -3.84631 | 110.63001 | 30917 ft | 459 kts | 65° |
| 2026-04-14 03:24 | -3.81872 | 110.68763 | 30915 ft | 458 kts | 65° |
| 2026-04-14 03:25 | -3.79129 | 110.74490 | 30920 ft | 459 kts | 65° |
| 2026-04-14 03:25 | -3.76371 | 110.80247 | 30917 ft | 458 kts | 65° |
| 2026-04-14 03:26 | -3.73608 | 110.86011 | 30917 ft | 458 kts | 65° |
| 2026-04-14 03:26 | -3.70848 | 110.91771 | 30918 ft | 458 kts | 65° |
| 2026-04-14 03:27 | -3.68113 | 110.97478 | 30915 ft | 458 kts | 65° |
| 2026-04-14 03:27 | -3.65353 | 111.03230 | 30917 ft | 458 kts | 65° |
| 2026-04-14 03:28 | -3.62592 | 111.08985 | 30919 ft | 459 kts | 65° |
| 2026-04-14 03:28 | -3.59840 | 111.14723 | 30916 ft | 459 kts | 65° |
| 2026-04-14 03:29 | -3.57077 | 111.20485 | 30919 ft | 459 kts | 64° |
| 2026-04-14 03:29 | -3.54307 | 111.26256 | 30917 ft | 459 kts | 65° |
| 2026-04-14 03:30 | -3.51536 | 111.32030 | 30919 ft | 460 kts | 65° |
| 2026-04-14 03:30 | -3.48758 | 111.37816 | 30917 ft | 460 kts | 65° |
| 2026-04-14 03:31 | -3.46007 | 111.43546 | 30918 ft | 460 kts | 64° |
| 2026-04-14 03:31 | -3.43231 | 111.49324 | 30915 ft | 460 kts | 65° |
| 2026-04-14 03:32 | -3.40459 | 111.55094 | 30917 ft | 460 kts | 65° |
| 2026-04-14 03:32 | -3.37704 | 111.60832 | 30918 ft | 460 kts | 65° |
| 2026-04-14 03:33 | -3.34933 | 111.66601 | 30918 ft | 460 kts | 65° |
| 2026-04-14 03:33 | -3.32157 | 111.72375 | 30913 ft | 460 kts | 65° |
| 2026-04-14 03:34 | -3.28003 | 111.81018 | 30918 ft | 460 kts | 64° |
| 2026-04-14 03:35 | -3.25231 | 111.86782 | 30913 ft | 460 kts | 64° |
| 2026-04-14 03:35 | -3.22457 | 111.92551 | 30918 ft | 460 kts | 64° |
| 2026-04-14 03:36 | -3.19697 | 111.98289 | 30916 ft | 460 kts | 64° |
| 2026-04-14 03:36 | -3.16924 | 112.04052 | 30915 ft | 459 kts | 64° |
| 2026-04-14 03:37 | -3.14149 | 112.09822 | 30916 ft | 459 kts | 64° |
| 2026-04-14 03:37 | -3.11371 | 112.15599 | 30917 ft | 460 kts | 64° |
| 2026-04-14 03:38 | -3.08596 | 112.21368 | 30920 ft | 460 kts | 64° |
| 2026-04-14 03:38 | -3.05833 | 112.27106 | 30914 ft | 460 kts | 64° |
| 2026-04-14 03:39 | -3.03126 | 112.32920 | 30913 ft | 460 kts | 67° |
| 2026-04-14 03:39 | -3.01147 | 112.37868 | 30917 ft | 461 kts | 69° |
| 2026-04-14 03:40 | -2.98456 | 112.44865 | 30916 ft | 461 kts | 69° |
| 2026-04-14 03:40 | -2.96140 | 112.50806 | 30920 ft | 461 kts | 69° |
| 2026-04-14 03:41 | -2.94168 | 112.55813 | 30911 ft | 462 kts | 68° |
| 2026-04-14 03:41 | -2.91817 | 112.61762 | 30917 ft | 462 kts | 68° |
| 2026-04-14 03:42 | -2.89451 | 112.67741 | 30916 ft | 462 kts | 68° |
| 2026-04-14 03:42 | -2.87101 | 112.73685 | 30913 ft | 462 kts | 68° |
| 2026-04-14 03:43 | -2.84738 | 112.79656 | 30916 ft | 462 kts | 68° |
| 2026-04-14 03:43 | -2.82373 | 112.85629 | 30915 ft | 461 kts | 68° |
| 2026-04-14 03:44 | -2.80008 | 112.91612 | 30915 ft | 461 kts | 68° |
| 2026-04-14 03:44 | -2.77643 | 112.97590 | 30917 ft | 461 kts | 68° |
| 2026-04-14 03:45 | -2.75282 | 113.03555 | 30917 ft | 461 kts | 68° |
| 2026-04-14 03:45 | -2.72944 | 113.09462 | 30851 ft | 455 kts | 68° |
| 2026-04-14 03:45 | -2.71770 | 113.12428 | 30477 ft | 449 kts | 68° |
| 2026-04-14 03:46 | -2.70626 | 113.15317 | 30041 ft | 444 kts | 68° |
| 2026-04-14 03:46 | -2.69509 | 113.18137 | 29610 ft | 440 kts | 68° |
| 2026-04-14 03:46 | -2.68387 | 113.20972 | 29157 ft | 435 kts | 68° |
| 2026-04-14 03:46 | -2.67278 | 113.23775 | 28696 ft | 432 kts | 68° |
| 2026-04-14 03:47 | -2.66176 | 113.26558 | 28234 ft | 429 kts | 68° |
| 2026-04-14 03:47 | -2.65080 | 113.29325 | 27774 ft | 426 kts | 68° |
| 2026-04-14 03:47 | -2.63992 | 113.32075 | 27315 ft | 422 kts | 68° |
| 2026-04-14 03:47 | -2.62927 | 113.34764 | 26871 ft | 419 kts | 68° |
| 2026-04-14 03:48 | -2.61856 | 113.37464 | 26411 ft | 416 kts | 69° |
| 2026-04-14 03:48 | -2.61149 | 113.40255 | 25925 ft | 413 kts | 87° |
| 2026-04-14 03:48 | -2.61336 | 113.43092 | 25504 ft | 408 kts | 104° |
| 2026-04-14 03:48 | -2.62125 | 113.45799 | 25077 ft | 403 kts | 108° |
| 2026-04-14 03:49 | -2.62997 | 113.48461 | 24617 ft | 402 kts | 109° |
| 2026-04-14 03:49 | -2.63886 | 113.51103 | 24172 ft | 400 kts | 109° |
| 2026-04-14 03:49 | -2.64756 | 113.53698 | 23735 ft | 397 kts | 109° |
| 2026-04-14 03:49 | -2.65624 | 113.56318 | 23296 ft | 395 kts | 109° |
| 2026-04-14 03:50 | -2.66477 | 113.58926 | 22859 ft | 392 kts | 109° |
| 2026-04-14 03:50 | -2.67315 | 113.61508 | 22427 ft | 390 kts | 109° |
| 2026-04-14 03:50 | -2.68144 | 113.64083 | 21996 ft | 388 kts | 108° |
| 2026-04-14 03:50 | -2.68969 | 113.66651 | 21566 ft | 386 kts | 108° |
| 2026-04-14 03:51 | -2.69787 | 113.69200 | 21139 ft | 384 kts | 108° |
| 2026-04-14 03:51 | -2.70600 | 113.71736 | 20714 ft | 381 kts | 108° |
| 2026-04-14 03:51 | -2.71406 | 113.74256 | 20288 ft | 379 kts | 108° |
| 2026-04-14 03:51 | -2.72211 | 113.76765 | 19864 ft | 377 kts | 108° |
| 2026-04-14 03:52 | -2.73008 | 113.79249 | 19451 ft | 375 kts | 108° |
| 2026-04-14 03:52 | -2.73795 | 113.81705 | 19037 ft | 374 kts | 108° |
| 2026-04-14 03:52 | -2.74590 | 113.84181 | 18618 ft | 372 kts | 108° |
| 2026-04-14 03:52 | -2.75380 | 113.86646 | 18201 ft | 370 kts | 108° |
| 2026-04-14 03:53 | -2.76166 | 113.89097 | 17786 ft | 369 kts | 108° |
| 2026-04-14 03:53 | -2.76947 | 113.91536 | 17374 ft | 367 kts | 108° |
| 2026-04-14 03:53 | -2.77724 | 113.93963 | 16961 ft | 365 kts | 108° |
| 2026-04-14 03:53 | -2.78497 | 113.96373 | 16560 ft | 363 kts | 108° |
| 2026-04-14 03:54 | -2.79265 | 113.98772 | 16156 ft | 361 kts | 108° |
| 2026-04-14 03:54 | -2.80020 | 114.01127 | 15755 ft | 359 kts | 108° |
| 2026-04-14 03:54 | -2.80779 | 114.03499 | 15356 ft | 357 kts | 108° |
| 2026-04-14 03:54 | -2.81534 | 114.05860 | 14952 ft | 355 kts | 108° |
| 2026-04-14 03:55 | -2.82285 | 114.08202 | 14553 ft | 352 kts | 108° |
| 2026-04-14 03:55 | -2.83029 | 114.10524 | 14156 ft | 350 kts | 108° |
| 2026-04-14 03:55 | -2.83764 | 114.12816 | 13763 ft | 347 kts | 108° |
| 2026-04-14 03:55 | -2.84497 | 114.15107 | 13370 ft | 345 kts | 108° |
| 2026-04-14 03:56 | -2.85225 | 114.17382 | 12985 ft | 342 kts | 108° |
| 2026-04-14 03:56 | -2.85951 | 114.19648 | 12593 ft | 340 kts | 108° |
| 2026-04-14 03:56 | -2.86671 | 114.21894 | 12206 ft | 338 kts | 108° |
| 2026-04-14 03:56 | -2.87482 | 114.24085 | 11802 ft | 335 kts | 120° |
| 2026-04-14 03:57 | -2.88949 | 114.25864 | 11429 ft | 331 kts | 140° |
| 2026-04-14 03:57 | -2.90741 | 114.27287 | 11046 ft | 328 kts | 143° |
| 2026-04-14 03:57 | -2.92562 | 114.28653 | 10647 ft | 326 kts | 143° |
| 2026-04-14 03:57 | -2.94351 | 114.29983 | 10416 ft | 319 kts | 143° |
| 2026-04-14 03:58 | -2.96098 | 114.31287 | 10324 ft | 308 kts | 143° |
| 2026-04-14 03:58 | -2.97793 | 114.32561 | 10195 ft | 299 kts | 142° |
| 2026-04-14 03:58 | -2.99443 | 114.33807 | 10085 ft | 296 kts | 142° |
| 2026-04-14 03:58 | -3.01078 | 114.35048 | 9924 ft | 294 kts | 142° |
| 2026-04-14 03:59 | -3.02721 | 114.36297 | 9614 ft | 299 kts | 142° |
| 2026-04-14 03:59 | -3.04386 | 114.37565 | 9336 ft | 302 kts | 142° |
| 2026-04-14 03:59 | -3.06054 | 114.38836 | 9037 ft | 300 kts | 142° |
| 2026-04-14 03:59 | -3.07711 | 114.40100 | 8706 ft | 298 kts | 142° |
| 2026-04-14 04:00 | -3.09355 | 114.41355 | 8398 ft | 296 kts | 142° |
| 2026-04-14 04:00 | -3.10987 | 114.42599 | 8105 ft | 294 kts | 142° |
| 2026-04-14 04:00 | -3.12611 | 114.43836 | 7798 ft | 293 kts | 142° |
| 2026-04-14 04:00 | -3.14209 | 114.45055 | 7488 ft | 292 kts | 142° |
| 2026-04-14 04:01 | -3.15820 | 114.46285 | 7195 ft | 290 kts | 142° |
| 2026-04-14 04:01 | -3.17417 | 114.47508 | 6896 ft | 289 kts | 141° |
| 2026-04-14 04:01 | -3.19012 | 114.48725 | 6580 ft | 287 kts | 141° |
| 2026-04-14 04:01 | -3.20578 | 114.49920 | 6272 ft | 278 kts | 141° |
| 2026-04-14 04:02 | -3.22096 | 114.51078 | 5982 ft | 269 kts | 141° |
| 2026-04-14 04:02 | -3.23555 | 114.52190 | 5709 ft | 259 kts | 141° |
| 2026-04-14 04:02 | -3.24978 | 114.53276 | 5447 ft | 255 kts | 141° |
| 2026-04-14 04:02 | -3.26487 | 114.54180 | 5166 ft | 255 kts | 163° |
| 2026-04-14 04:03 | -3.28228 | 114.54288 | 4983 ft | 254 kts | 184° |
| 2026-04-14 04:03 | -3.29973 | 114.54014 | 4719 ft | 253 kts | 189° |
| 2026-04-14 04:03 | -3.31697 | 114.53682 | 4449 ft | 252 kts | 189° |
| 2026-04-14 04:03 | -3.33410 | 114.53358 | 4278 ft | 247 kts | 188° |
| 2026-04-14 04:04 | -3.35075 | 114.53056 | 4165 ft | 241 kts | 188° |
| 2026-04-14 04:04 | -3.36716 | 114.52764 | 4060 ft | 239 kts | 188° |
| 2026-04-14 04:04 | -3.38355 | 114.52671 | 3935 ft | 235 kts | 163° |
| 2026-04-14 04:04 | -3.39684 | 114.53507 | 3845 ft | 227 kts | 124° |
| 2026-04-14 04:05 | -3.40274 | 114.54945 | 3728 ft | 226 kts | 102° |
| 2026-04-14 04:05 | -3.40587 | 114.56502 | 3486 ft | 228 kts | 101° |
| 2026-04-14 04:05 | -3.40875 | 114.58041 | 3310 ft | 218 kts | 100° |
| 2026-04-14 04:05 | -3.41141 | 114.59492 | 3135 ft | 209 kts | 101° |
| 2026-04-14 04:06 | -3.41400 | 114.60905 | 2884 ft | 204 kts | 101° |
| 2026-04-14 04:06 | -3.41654 | 114.62280 | 2613 ft | 198 kts | 100° |
| 2026-04-14 04:06 | -3.41901 | 114.63622 | 2360 ft | 193 kts | 100° |
| 2026-04-14 04:06 | -3.42140 | 114.64914 | 2109 ft | 188 kts | 99° |
| 2026-04-14 04:07 | -3.42371 | 114.66163 | 1849 ft | 177 kts | 99° |
| 2026-04-14 04:07 | -3.42585 | 114.67330 | 1650 ft | 163 kts | 99° |
| 2026-04-14 04:07 | -3.42784 | 114.68409 | 1422 ft | 154 kts | 98° |
| 2026-04-14 04:07 | -3.42979 | 114.69468 | 1227 ft | 155 kts | 98° |
| 2026-04-14 04:08 | -3.43176 | 114.70537 | 1018 ft | 157 kts | 98° |
| 2026-04-14 04:08 | -3.43374 | 114.71606 | 809 ft | 155 kts | 98° |
| 2026-04-14 04:08 | -3.43569 | 114.72667 | 602 ft | 155 kts | 99° |
| 2026-04-14 04:08 | -3.43766 | 114.73731 | 402 ft | 156 kts | 99° |
| 2026-04-14 04:09 | -3.43961 | 114.74787 | 202 ft | 152 kts | 99° |
| 2026-04-14 04:09 | -3.44142 | 114.75784 | 67 ft | 120 kts | 101° |
| 2026-04-14 04:09 | -3.44239 | 114.76287 | 76 ft | 57 kts | 101° |
| 2026-04-14 04:09 | -3.44305 | 114.76656 | 71 ft | 51 kts | 100° |
| 2026-04-14 04:10 | -3.44353 | 114.76928 | 69 ft | 29 kts | 100° |
| 2026-04-14 04:10 | -3.44363 | 114.77043 | 73 ft | 6 kts | 78° |
| 2026-04-14 04:10 | -3.44368 | 114.77084 | 73 ft | 6 kts | 144° |
| 2026-04-14 04:10 | -3.44392 | 114.77069 | 71 ft | 4 kts | 276° |
| 2026-04-14 04:11 | -3.44379 | 114.77014 | 66 ft | 11 kts | 284° |
| 2026-04-14 04:11 | -3.44354 | 114.76909 | 74 ft | 22 kts | 283° |
| 2026-04-14 04:11 | -3.44315 | 114.76723 | 71 ft | 31 kts | 281° |
| 2026-04-14 04:11 | -3.44276 | 114.76516 | 70 ft | 30 kts | 281° |
| 2026-04-14 04:12 | -3.44242 | 114.76318 | 72 ft | 28 kts | 279° |
| 2026-04-14 04:12 | -3.44229 | 114.76245 | 76 ft | 27 kts | 280° |
| 2026-04-14 04:12 | -3.44208 | 114.76130 | 75 ft | 26 kts | 280° |
| 2026-04-14 04:12 | -3.44179 | 114.75973 | 75 ft | 16 kts | 285° |
| 2026-04-14 04:13 | -3.44115 | 114.75949 | 71 ft | 11 kts | 6° |
| 2026-04-14 04:13 | -3.44029 | 114.75965 | 72 ft | 13 kts | 12° |
| 2026-04-14 04:13 | -3.43941 | 114.75971 | 74 ft | 10 kts | 346° |
| 2026-04-14 04:13 | -3.43882 | 114.75967 | 74 ft | 7 kts | 8° |
| 2026-04-14 04:14 | -3.43847 | 114.75973 | 74 ft | 2 kts | 10° |
| 2026-04-14 04:14 | -3.43841 | 114.75974 | 74 ft | 0 kts | 10° |